Michalis L — A8TZ8 — position and weather

sailwx.info

Track history (hours):
 
Tides and Currents Weather Stations Pressure Air Temp Water Temp Dewpoint Dewpoint Depression Visibility Wind Speed Wind Dir Waves Ship Positions

Michalis L

Last reported at 2014-Oct-25 16:26 UTC. Time now 2014-Oct-25 16:58 UTC.
Position N 31°39' E 031°43'.

Length 230 m; draft 10.2 m.

Type: Cargo ship. MMSI: 636014462.

Date/timePositionNaut miles runAvg speedWind from/ knotsBaromVisibWave heightAir tempDewpointWater temp
2014-Oct-25 16:26N 31°39' E 031°43'0 0.0
2014-Oct-25 14:32N 31°39' E 031°43'0 0.0
2014-Oct-25 13:32N 31°39' E 031°43'0 0.0
2014-Oct-25 12:23N 31°39' E 031°43'0 0.0
2014-Oct-25 11:29N 31°39' E 031°43'0 0.0
2014-Oct-25 05:08N 31°39' E 031°43'0 0.0
2014-Oct-25 04:32N 31°39' E 031°43'0 0.0
2014-Oct-25 03:23N 31°39' E 031°43'0 0.0
2014-Oct-25 02:29N 31°39' E 031°43'0 0.0
2014-Oct-24 20:05N 31°38' E 031°43'0 0.0
2014-Oct-24 19:32N 31°38' E 031°43'0 0.0
2014-Oct-24 18:32N 31°38' E 031°43'0 0.1
2014-Oct-24 17:05N 31°38' E 031°43'1 2.0
2014-Oct-24 16:33N 31°38' E 031°44'7 5.7
2014-Oct-24 15:24N 31°31' E 031°46'  
2014-Oct-20 14:21N 36°19' E 014°27'2311.3
2014-Oct-20 12:18N 36°26' E 013°59'17211.6
2014-Oct-19 21:26N 37°29' E 010°39'1112.6
2014-Oct-19 20:33N 37°32' E 010°25'1313.0
2014-Oct-19 19:33N 37°34' E 010°09'1212.3
2014-Oct-19 18:34N 37°32' E 009°54'1312.8
2014-Oct-19 17:33N 37°28' E 009°39'1412.6
2014-Oct-19 16:28N 37°24' E 009°22'1111.9
2014-Oct-19 15:32N 37°20' E 009°09'1111.3
2014-Oct-19 14:32N 37°18' E 008°55'1111.5
2014-Oct-19 13:33N 37°18' E 008°41'1211.7
2014-Oct-19 12:33N 37°18' E 008°26'1211.9
2014-Oct-19 11:33N 37°18' E 008°11'1211.8
2014-Oct-19 10:33N 37°17' E 007°56'1411.7
2014-Oct-19 09:22N 37°17' E 007°39'1413.6
2014-Oct-19 08:19N 37°17' E 007°21'22311.9
2014-Oct-18 13:33N 37°02' E 002°42'10112.5
2014-Oct-18 05:28N 36°42' E 000°39'2612.3
2014-Oct-18 03:22N 36°36' E 000°07'1012.1
2014-Oct-18 02:33N 36°34' W 000°05'1411.8
2014-Oct-18 01:20N 36°31' W 000°23'1111.7
2014-Oct-18 00:21N 36°29' W 000°36'1011.6
2014-Oct-17 23:28N 36°27' W 000°49'6011.9
2014-Oct-17 18:27N 36°15' W 002°02'15112.6
2014-Oct-17 06:28N 36°01' W 005°08'1212.8
2014-Oct-17 05:33N 35°59' W 005°22'1612.4
2014-Oct-17 04:16N 35°54' W 005°41'  
Track history (hours):
 
Tides and Currents Weather Stations Pressure Air Temp Water Temp Dewpoint Dewpoint Depression Visibility Wind Speed Wind Dir Waves Ship Positions

Michalis L

Last reported at 2014-Oct-25 16:26 UTC. Time now 2014-Oct-25 16:58 UTC.
Position N 31°39' E 031°43'.

Length 230 m; draft 10.2 m.

Type: Cargo ship. MMSI: 636014462.

Date/timePositionNaut miles runAvg speedWind from/ knotsBaromVisibWave heightAir tempDewpointWater temp
2014-Oct-25 16:26N 31°39' E 031°43'0 0.0
2014-Oct-25 14:32N 31°39' E 031°43'0 0.0
2014-Oct-25 13:32N 31°39' E 031°43'0 0.0
2014-Oct-25 12:23N 31°39' E 031°43'0 0.0
2014-Oct-25 11:29N 31°39' E 031°43'0 0.0
2014-Oct-25 05:08N 31°39' E 031°43'0 0.0
2014-Oct-25 04:32N 31°39' E 031°43'0 0.0
2014-Oct-25 03:23N 31°39' E 031°43'0 0.0
2014-Oct-25 02:29N 31°39' E 031°43'0 0.0
2014-Oct-24 20:05N 31°38' E 031°43'0 0.0
2014-Oct-24 19:32N 31°38' E 031°43'0 0.0
2014-Oct-24 18:32N 31°38' E 031°43'0 0.1
2014-Oct-24 17:05N 31°38' E 031°43'1 2.0
2014-Oct-24 16:33N 31°38' E 031°44'7 5.7
2014-Oct-24 15:24N 31°31' E 031°46'  
2014-Oct-20 14:21N 36°19' E 014°27'2311.3
2014-Oct-20 12:18N 36°26' E 013°59'17211.6
2014-Oct-19 21:26N 37°29' E 010°39'1112.6
2014-Oct-19 20:33N 37°32' E 010°25'1313.0
2014-Oct-19 19:33N 37°34' E 010°09'1212.3
2014-Oct-19 18:34N 37°32' E 009°54'1312.8
2014-Oct-19 17:33N 37°28' E 009°39'1412.6
2014-Oct-19 16:28N 37°24' E 009°22'1111.9
2014-Oct-19 15:32N 37°20' E 009°09'1111.3
2014-Oct-19 14:32N 37°18' E 008°55'1111.5
2014-Oct-19 13:33N 37°18' E 008°41'1211.7
2014-Oct-19 12:33N 37°18' E 008°26'1211.9
2014-Oct-19 11:33N 37°18' E 008°11'1211.8
2014-Oct-19 10:33N 37°17' E 007°56'1411.7
2014-Oct-19 09:22N 37°17' E 007°39'1413.6
2014-Oct-19 08:19N 37°17' E 007°21'22311.9
2014-Oct-18 13:33N 37°02' E 002°42'10112.5
2014-Oct-18 05:28N 36°42' E 000°39'2612.3
2014-Oct-18 03:22N 36°36' E 000°07'1012.1
2014-Oct-18 02:33N 36°34' W 000°05'1411.8
2014-Oct-18 01:20N 36°31' W 000°23'1111.7
2014-Oct-18 00:21N 36°29' W 000°36'1011.6
2014-Oct-17 23:28N 36°27' W 000°49'6011.9
2014-Oct-17 18:27N 36°15' W 002°02'15112.6
2014-Oct-17 06:28N 36°01' W 005°08'1212.8
2014-Oct-17 05:33N 35°59' W 005°22'1612.4
2014-Oct-17 04:16N 35°54' W 005°41'  

Dump ship's entire track history